Terminal Aerodrome Forecast
Issued by NWS Sioux Falls, SD

Home | Current Version | Previous Version | Graphics & Text | Print | Product List | Glossary On
Versions: 1 2 3 4 5 6 7 8 9 10 11 12 13
000
FTUS43 KFSD 171137
TAFSUX
TAF
KSUX 171137Z 1712/1812 18007KT 4SM -SN BKN030
      TEMPO 1712/1714 2SM -SN OVC020
     FM171400 24004KT P6SM SCT150
     FM171600 28012KT P6SM SCT250
     FM180400 12004KT P6SM SCT200
     FM180900 15013G19KT P6SM BKN150 WS015/17035KT=

USA.gov is the U.S. government's official web portal to all federal, state and local government web resources and services.